Terminal Aerodrome Forecast
Issued by NWS Dallas/Fort Worth, TX

Home | Current Version | Previous Version | Text Only | Print | Product List | Glossary On
Versions: 1 2 3 4 5 6 7 8 9 10 11 12 13 14 15 16 17 18 19 20 21 22 23 24 25 26 27 28 29 30 31 32
921
FTUS44 KFWD 200901 AAC
TAFDFW
TAF AMD
KDFW 200901Z 2009/2112 29007KT 5SM -TSRA BR SCT035CB OVC090
     FM200930 VRB05KT 5SM -RA BR SCT050 OVC080
     FM201500 18010KT P6SM SCT025 OVC060
     FM202100 17010KT P6SM SCT100
     FM202300 15010KT P6SM SCT300
     FM210900 32008KT P6SM SCT300=

USA.gov is the U.S. government's official web portal to all federal, state and local government web resources and services.